Nearby METAR Reports

 

KGSP - Greer/Spartansbg, South Carolina, USA
Distance from station: E 4mi, 6km
Updated: Wed, 21-Oct-2020 7:53pm EDT
Few Clouds
Few Clouds
 Wind from calm
Wind: Calm
Temperature: 68°F , 20°C
Dew Point: 64°F , 18°C
Humidity: 88%
Barometer: 30.22 inHg , 1023.4 hPa
Clouds: Few Clouds
Visibility: 10 miles , 16 km
Cloud details: Few Clouds 6000 ft
2020/10/21 23:53 KGSP 212353Z 00000KT 10SM FEW060 20/18 A3022 RMK AO2 SLP227 T02000178 10272 20200 52006
KGMU - Greenville, South Carolina, USA
Distance from station: SW 5mi, 8km
Updated: Wed, 21-Oct-2020 7:53pm EDT
Clear
Clear
 Wind from calm
Wind: Calm
Temperature: 75°F , 24°C
Dew Point: 63°F , 17°C
Humidity: 65%
Barometer: 30.23 inHg , 1023.7 hPa
Clouds: Clear
Visibility: 10 miles , 16 km
2020/10/21 23:53 KGMU 212353Z 00000KT 10SM CLR 24/17 A3023 RMK AO2 SLP228 T02440172 10278 20244 51006
 
KGYH - Greenville, South Carolina, USA
Distance from station: SSW 11mi, 18km
Updated: Wed, 21-Oct-2020 7:47pm EDT
Clear
Clear
 Wind from calm
Wind: Calm
Temperature: 73°F , 23°C
Dew Point: 64°F , 18°C
Humidity: 74%
Barometer: 30.22 inHg , 1023.4 hPa
Clouds: Clear
Visibility: 10 miles , 16 km
2020/10/21 23:47 KGYH 212347Z 00000KT 10SM CLR 23/18 A3022
KSPA - Spartanburg, South Carolina, USA
Distance from station: E 20mi, 32km
Updated: Wed, 21-Oct-2020 7:55pm EDT
Partly cloudy
Partly cloudy
 Wind from calm
Wind: Calm
Temperature: 68°F , 20°C
Dew Point: 64°F , 18°C
Humidity: 88%
Barometer: 30.22 inHg , 1023.4 hPa
Clouds: Partly cloudy
Visibility: 10 miles , 16 km
Cloud details: Partly cloudy 4200 ft
2020/10/21 23:55 KSPA 212355Z AUTO 00000KT 10SM SCT042 20/18 A3022 RMK AO2
 
KLQK - Pickens, South Carolina, USA
Distance from station: WSW 24mi, 39km
Updated: Wed, 21-Oct-2020 7:55pm EDT
Clear
Clear
 Wind from calm
Wind: Calm
Temperature: 66°F , 19°C
Dew Point: 66°F , 19°C
Humidity: 100%
Barometer: 30.21 inHg , 1023 hPa
Clouds: Clear
Visibility: 10 miles , 16 km
2020/10/21 23:55 KLQK 212355Z AUTO 00000KT 10SM CLR 19/19 A3021 RMK AO2 T01920192 10277 20191
KLUX - Laurens, South Carolina, USA
Distance from station: SE 33mi, 54km
Updated: Wed, 21-Oct-2020 7:55pm EDT
Clear
Clear
 Wind from ESE
Wind: ESE 5 mph , 7 km/h
Temperature: 68°F , 20°C
Dew Point: 64°F , 18°C
Humidity: 88%
Barometer: 30.21 inHg , 1023 hPa
Clouds: Clear
Visibility: 10 miles , 16 km
2020/10/21 23:55 KLUX 212355Z AUTO 11004KT 10SM CLR 20/18 A3021 RMK AO2
 
KAND - Anderson, South Carolina, USA
Distance from station: SW 37mi, 59km
Updated: Wed, 21-Oct-2020 7:56pm EDT
Few Clouds
Few Clouds
 Wind from calm
Wind: Calm
Temperature: 72°F , 22°C
Dew Point: 64°F , 18°C
Humidity: 78%
Barometer: 30.20 inHg , 1022.7 hPa
Clouds: Few Clouds
Visibility: 10 miles , 16 km
Cloud details: Few Clouds 4300 ft
2020/10/21 23:56 KAND 212356Z AUTO 00000KT 10SM FEW043 22/18 A3020 RMK AO2 SLP222 T02170178 10272 20217 51006
KCEU - Clemson, South Carolina, USA
Distance from station: WSW 37mi, 60km
Updated: Wed, 21-Oct-2020 7:54pm EDT
Clear
Clear
 Wind from calm
Wind: Calm
Temperature: 72°F , 22°C
Dew Point: 64°F , 18°C
Humidity: 78%
Barometer: 30.22 inHg , 1023.4 hPa
Clouds: Clear
Visibility: 10 miles , 16 km
2020/10/21 23:54 KCEU 212354Z AUTO 00000KT 10SM CLR 22/18 A3022 RMK AO2 SLP224 6//// T02170178 10267 20206 51006
 
KAVL - Asheville, North Carolina, USA
Distance from station: NNW 40mi, 64km
Updated: Wed, 21-Oct-2020 7:54pm EDT
Clear
Clear
 Wind from calm
Wind: Calm
Temperature: 66°F , 19°C
Dew Point: 61°F , 16°C
Humidity: 83%
Barometer: 30.28 inHg , 1025.4 hPa
Clouds: Clear
Visibility: 10 miles , 16 km
2020/10/21 23:54 KAVL 212354Z 00000KT 10SM CLR 19/16 A3028 RMK AO2 SLP239 T01890161 10261 20189 51009
KFQD - Rutherfordton, North Carolina, USA
Distance from station: NNE 41mi, 66km
Updated: Wed, 21-Oct-2020 7:55pm EDT
Clear
Clear
 Wind from calm
Wind: Calm
Temperature: 70°F , 21°C
Dew Point: 63°F , 17°C
Humidity: 78%
Barometer: 30.24 inHg , 1024 hPa
Clouds: Clear
Visibility: 10 miles , 16 km
2020/10/21 23:55 KFQD 212355Z AUTO 00000KT 10SM CLR 21/17 A3024 RMK AO2
 
KGRD - Greenwood, South Carolina, USA
Distance from station: S 45mi, 73km
Updated: Wed, 21-Oct-2020 7:56pm EDT
Clear
Clear
 Wind from calm
Wind: Calm
Temperature: 66°F , 19°C
Dew Point: 66°F , 19°C
Humidity: 100%
Barometer: 30.21 inHg , 1023 hPa
Clouds: Clear
Visibility: 10 miles , 16 km
2020/10/21 23:56 KGRD 212356Z AUTO 00000KT 10SM CLR 19/19 A3021 RMK AO2 SLP227 T01890189 10272 20189 53005
KEHO - Shelby Muni, North Carolina, USA
Distance from station: ENE 46mi, 74km
Updated: Wed, 21-Oct-2020 7:35pm EDT
Partly cloudy
Partly cloudy
 Wind from calm
Wind: Calm
Temperature: 73°F , 23°C
Dew Point: 63°F , 17°C
Humidity: 69%
Barometer: 30.23 inHg , 1023.7 hPa
Clouds: Partly cloudy
Visibility: 10 miles , 16 km
Cloud details: Partly cloudy 4600 ft
2020/10/21 23:35 KEHO 212335Z AUTO 00000KT 10SM SCT046 23/17 A3023 RMK AO2 T02250172